Time;durP1;ratioP1;P1;durP2;ratioP2;P2;SDS_P1;SDS_P2;PMS_P1;PMS_P2;Temp;Humidity;BMP_temperature;BMP_pressure;BME280_temperature;BME280_humidity;BME280_pressure;Samples;Min_cycle;Max_cycle;Signal;HPM_P1;HPM_P2
2021/07/16 00:01:14;;;;;;;16.00;8.70;;;22.30;99.90;;;;;;5027320;28;20665;-68
2021/07/16 00:03:42;;;;;;;11.33;8.23;;;22.30;99.90;;;;;;5027804;28;20896;-68
2021/07/16 00:06:08;;;;;;;12.53;8.73;;;22.30;99.90;;;;;;5027620;28;20662;-68
2021/07/16 00:08:34;;;;;;;13.20;9.27;;;22.20;99.90;;;;;;5031434;28;20695;-69
2021/07/16 00:11:02;;;;;;;12.23;8.67;;;22.20;99.90;;;;;;5034610;28;20248;-69
2021/07/16 00:13:30;;;;;;;13.60;9.13;;;22.20;99.90;;;;;;5040086;28;20661;-68
2021/07/16 00:15:58;;;;;;;20.03;10.40;;;22.20;99.90;;;;;;5028889;28;20591;-68
2021/07/16 00:18:29;;;;;;;18.97;10.00;;;22.20;99.90;;;;;;5035252;28;20710;-68
2021/07/16 00:20:54;;;;;;;14.43;9.97;;;22.20;99.90;;;;;;5029015;28;20664;-68
2021/07/16 00:23:22;;;;;;;12.50;10.30;;;22.10;99.90;;;;;;5048103;28;20701;-68
2021/07/16 00:25:48;;;;;;;16.07;10.30;;;22.10;99.90;;;;;;5043390;28;20189;-68
2021/07/16 00:28:15;;;;;;;13.53;9.70;;;22.10;99.90;;;;;;5030974;28;20599;-68
2021/07/16 00:31:04;;;;;;;13.00;10.57;;;22.10;99.90;;;;;;5033992;28;20241;-70
2021/07/16 00:33:32;;;;;;;13.50;9.83;;;22.00;99.90;;;;;;5030040;28;20737;-69
2021/07/16 00:35:58;;;;;;;12.93;9.53;;;22.00;99.90;;;;;;5036175;28;20727;-69
2021/07/16 00:38:26;;;;;;;16.60;10.23;;;21.90;99.90;;;;;;5038864;28;20606;-69
2021/07/16 00:41:01;;;;;;;12.73;9.40;;;21.90;99.90;;;;;;5032392;28;20239;-69
2021/07/16 00:43:29;;;;;;;12.70;9.80;;;21.90;99.90;;;;;;5050915;28;20693;-68
2021/07/16 00:45:55;;;;;;;14.00;9.77;;;21.90;99.90;;;;;;5036290;28;20688;-68
2021/07/16 00:48:20;;;;;;;13.53;9.47;;;21.80;99.90;;;;;;5044914;28;20606;-70
2021/07/16 00:50:48;;;;;;;11.97;8.83;;;21.80;99.90;;;;;;5050297;28;20260;-70
2021/07/16 00:53:19;;;;;;;14.73;9.70;;;21.80;99.90;;;;;;5042251;28;20251;-70
2021/07/16 00:55:48;;;;;;;12.70;9.27;;;21.70;99.90;;;;;;5030749;28;20623;-70
2021/07/16 00:58:16;;;;;;;15.40;9.20;;;21.70;99.90;;;;;;5030176;28;20652;-70
2021/07/16 01:00:47;;;;;;;11.77;8.90;;;21.60;99.90;;;;;;5030457;28;20719;-70
2021/07/16 01:03:12;;;;;;;13.93;9.20;;;21.60;99.90;;;;;;5030515;28;20757;-70
2021/07/16 01:05:42;;;;;;;17.73;9.13;;;21.60;99.90;;;;;;5046691;28;20685;-70
2021/07/16 01:08:08;;;;;;;11.70;8.03;;;21.60;99.90;;;;;;5049771;28;20172;-70
2021/07/16 01:10:39;;;;;;;13.70;8.23;;;21.60;99.90;;;;;;5049487;28;20685;-68
2021/07/16 01:13:13;;;;;;;12.07;7.73;;;21.60;99.90;;;;;;5029127;28;20654;-68
2021/07/16 01:15:48;;;;;;;14.90;8.37;;;21.50;99.90;;;;;;5049883;28;20629;-68
2021/07/16 01:18:16;;;;;;;16.30;9.60;;;21.50;99.90;;;;;;5048165;28;20731;-67
2021/07/16 01:20:42;;;;;;;11.20;7.80;;;21.40;99.90;;;;;;5041736;28;20742;-68
2021/07/16 01:23:19;;;;;;;13.07;8.20;;;21.30;99.90;;;;;;5049302;28;20660;-67
2021/07/16 01:25:45;;;;;;;12.50;8.40;;;21.30;99.90;;;;;;5049789;28;20625;-68
2021/07/16 01:28:28;;;;;;;15.20;8.47;;;21.20;99.90;;;;;;5049246;28;21115;-68
2021/07/16 01:30:56;;;;;;;11.87;7.13;;;21.20;99.90;;;;;;5033070;28;20203;-68
2021/07/16 01:33:24;;;;;;;9.50;7.57;;;21.20;99.90;;;;;;5049535;28;20610;-68
2021/07/16 01:35:52;;;;;;;10.40;7.53;;;21.10;99.90;;;;;;5049575;28;20591;-68
2021/07/16 01:38:18;;;;;;;9.93;7.23;;;21.00;99.90;;;;;;5039628;28;20711;-68
2021/07/16 01:40:48;;;;;;;11.10;7.57;;;21.00;99.90;;;;;;5047775;28;20822;-68
2021/07/16 01:43:24;;;;;;;11.77;7.17;;;21.00;99.90;;;;;;5030917;28;20246;-68
2021/07/16 01:45:49;;;;;;;11.00;7.10;;;20.90;99.90;;;;;;5045943;28;22666;-68
2021/07/16 01:48:25;;;;;;;11.00;7.50;;;20.90;99.90;;;;;;5029233;28;20648;-69
2021/07/16 01:50:54;;;;;;;10.00;7.20;;;20.80;99.90;;;;;;5029232;28;20177;-69
2021/07/16 01:53:22;;;;;;;13.83;8.17;;;20.80;99.90;;;;;;5029324;28;21018;-68
2021/07/16 01:55:50;;;;;;;13.43;7.20;;;20.70;99.90;;;;;;5015169;28;20966;-69
2021/07/16 01:58:18;;;;;;;9.20;7.00;;;20.70;99.90;;;;;;5026654;28;20586;-69
2021/07/16 02:00:47;;;;;;;14.20;7.43;;;20.70;99.90;;;;;;5048828;28;20669;-69
2021/07/16 02:03:15;;;;;;;13.80;7.40;;;20.70;99.90;;;;;;5015585;28;20651;-69
2021/07/16 02:05:43;;;;;;;12.10;7.57;;;20.70;99.90;;;;;;5028940;28;20719;-69
2021/07/16 02:08:15;;;;;;;10.70;6.80;;;20.60;99.90;;;;;;5010795;28;20658;-68
2021/07/16 02:10:47;;;;;;;11.03;7.60;;;20.60;99.90;;;;;;5034184;28;20642;-68
2021/07/16 02:13:13;;;;;;;10.63;7.10;;;20.60;99.90;;;;;;5027347;28;20780;-69
2021/07/16 02:15:41;;;;;;;11.70;6.67;;;20.60;99.90;;;;;;5048578;28;20737;-68
2021/07/16 02:18:06;;;;;;;10.53;6.57;;;20.60;99.90;;;;;;5046593;28;20633;-68
2021/07/16 02:20:43;;;;;;;14.13;6.90;;;20.60;99.90;;;;;;5048549;28;20741;-68
2021/07/16 02:23:19;;;;;;;9.90;6.80;;;20.60;99.90;;;;;;5048352;28;20199;-68
2021/07/16 02:25:45;;;;;;;11.03;7.47;;;20.60;99.90;;;;;;5048541;28;20559;-68
2021/07/16 02:28:22;;;;;;;10.87;7.30;;;20.60;99.90;;;;;;5029906;28;20634;-68
2021/07/16 02:30:50;;;;;;;12.63;7.20;;;20.40;99.90;;;;;;5042100;28;20861;-68
2021/07/16 02:33:24;;;;;;;12.43;7.73;;;20.40;99.90;;;;;;5048738;28;20642;-69
2021/07/16 02:35:52;;;;;;;13.40;7.60;;;20.30;99.90;;;;;;5026691;28;20626;-69
2021/07/16 02:38:28;;;;;;;;;;;;;;;;;;;;;
2021/07/16 02:40:56;;;;;;;10.90;7.03;;;20.30;99.90;;;;;;5048276;28;20590;-71
2021/07/16 02:43:27;;;;;;;10.30;7.33;;;20.30;99.90;;;;;;5037773;28;20725;-71
2021/07/16 02:45:53;;;;;;;11.33;7.60;;;20.30;99.90;;;;;;5033157;28;21153;-68
2021/07/16 02:48:27;;;;;;;11.77;7.73;;;20.30;99.90;;;;;;5047951;28;20740;-68
2021/07/16 02:50:53;;;;;;;10.93;7.30;;;20.30;99.90;;;;;;5048178;28;20902;-68
2021/07/16 02:53:21;;;;;;;9.90;7.30;;;20.30;99.90;;;;;;5026934;28;20669;-69
2021/07/16 02:55:47;;;;;;;8.20;7.33;;;20.30;99.90;;;;;;5028145;28;20181;-71
2021/07/16 02:58:15;;;;;;;12.13;7.30;;;20.30;99.90;;;;;;5028648;28;20718;-69
2021/07/16 03:00:49;;;;;;;8.67;7.40;;;20.30;99.90;;;;;;5027998;28;20631;-70
2021/07/16 03:03:22;;;;;;;10.97;7.30;;;20.30;99.90;;;;;;5033058;28;20973;-70
2021/07/16 03:05:55;;;;;;;9.93;7.77;;;20.20;99.90;;;;;;5029826;28;21180;-68
2021/07/16 03:08:27;;;;;;;13.33;7.93;;;20.20;99.90;;;;;;5047726;28;20539;-69
2021/07/16 03:10:54;;;;;;;14.77;8.10;;;20.20;99.90;;;;;;5041586;28;20606;-68
2021/07/16 03:13:21;;;;;;;10.30;7.47;;;20.10;99.90;;;;;;5042293;28;20803;-69
2021/07/16 03:15:50;;;;;;;10.73;7.83;;;20.10;99.90;;;;;;5029590;28;21170;-69
2021/07/16 03:18:20;;;;;;;13.57;7.90;;;20.10;99.90;;;;;;5047336;28;21168;-69
2021/07/16 03:20:47;;;;;;;14.40;8.47;;;20.00;99.90;;;;;;5030910;28;21037;-68
2021/07/16 03:23:14;;;;;;;14.93;8.10;;;20.20;99.90;;;;;;5047525;28;20703;-68
2021/07/16 03:25:43;;;;;;;11.57;7.80;;;20.20;99.90;;;;;;5034072;28;20592;-68
2021/07/16 03:28:10;;;;;;;14.13;8.20;;;20.20;99.90;;;;;;5027586;28;20929;-68
2021/07/16 03:30:37;;;;;;;10.70;7.50;;;20.10;99.90;;;;;;5027918;28;20654;-68
2021/07/16 03:33:04;;;;;;;13.27;8.60;;;20.10;99.90;;;;;;5009553;28;20693;-69
2021/07/16 03:35:35;;;;;;;9.37;8.00;;;20.10;99.90;;;;;;5027930;28;20734;-68
2021/07/16 03:38:03;;;;;;;13.13;8.40;;;20.00;99.90;;;;;;5031175;28;20624;-68
2021/07/16 03:40:30;;;;;;;13.10;8.60;;;20.00;99.90;;;;;;5038332;28;21142;-68
2021/07/16 03:42:57;;;;;;;12.63;9.00;;;20.10;99.90;;;;;;5027770;28;20614;-68
2021/07/16 03:45:27;;;;;;;11.27;9.27;;;20.10;99.90;;;;;;5029012;28;20604;-68
2021/07/16 03:48:04;;;;;;;16.03;8.67;;;20.00;99.90;;;;;;5039394;28;20946;-69
2021/07/16 03:50:32;;;;;;;11.37;7.77;;;20.10;99.90;;;;;;5046142;28;20598;-69
2021/07/16 03:52:58;;;;;;;9.57;7.90;;;20.10;99.90;;;;;;5043007;28;20623;-69
2021/07/16 03:55:23;;;;;;;10.50;8.33;;;20.10;99.90;;;;;;5041189;28;20622;-68
2021/07/16 03:57:50;;;;;;;11.50;8.20;;;20.10;99.90;;;;;;5047279;28;20255;-68
2021/07/16 04:00:25;;;;;;;15.70;9.47;;;20.10;99.90;;;;;;5033422;28;20601;-68
2021/07/16 04:02:51;;;;;;;17.53;9.07;;;20.00;99.90;;;;;;5034520;28;20646;-68
2021/07/16 04:05:16;;;;;;;15.50;8.87;;;20.00;99.90;;;;;;5081353;22;20721;-67
2021/07/16 04:07:45;;;;;;;13.33;8.90;;;20.00;99.90;;;;;;5060462;28;20266;-66
2021/07/16 04:10:16;;;;;;;14.40;9.17;;;20.00;99.90;;;;;;5061298;28;20272;-67
2021/07/16 04:12:50;;;;;;;14.60;10.10;;;19.90;99.90;;;;;;5068376;28;20667;-67
2021/07/16 04:15:18;;;;;;;17.83;8.93;;;20.00;99.90;;;;;;5071780;28;21216;-66
2021/07/16 04:17:49;;;;;;;15.87;9.27;;;20.00;99.90;;;;;;5071271;28;20577;-66
2021/07/16 04:20:15;;;;;;;9.70;7.80;;;20.00;99.90;;;;;;5071546;28;20621;-67
2021/07/16 04:22:41;;;;;;;13.53;8.67;;;20.10;99.90;;;;;;5053214;28;20671;-66
2021/07/16 04:25:17;;;;;;;12.93;8.50;;;20.10;99.90;;;;;;5032775;28;20635;-66
2021/07/16 04:27:46;;;;;;;11.77;8.30;;;20.10;99.90;;;;;;5052549;28;20230;-66
2021/07/16 04:30:18;;;;;;;15.13;9.03;;;20.10;99.90;;;;;;5057686;28;20739;-66
2021/07/16 04:32:50;;;;;;;12.97;8.17;;;20.00;99.90;;;;;;5071606;28;20600;-66
2021/07/16 04:35:16;;;;;;;15.47;8.07;;;20.10;99.90;;;;;;5071037;28;20635;-66
2021/07/16 04:37:48;;;;;;;14.10;8.47;;;20.20;99.90;;;;;;5070725;28;20598;-66
2021/07/16 04:40:20;;;;;;;15.83;8.80;;;20.10;99.90;;;;;;5065207;28;20683;-66
2021/07/16 04:42:49;;;;;;;16.97;8.30;;;20.10;99.90;;;;;;5069698;28;20665;-66
2021/07/16 04:45:18;;;;;;;13.23;8.47;;;20.10;99.90;;;;;;5060305;28;20630;-66
2021/07/16 04:47:44;;;;;;;18.80;8.67;;;20.20;99.90;;;;;;5067911;28;20603;-66
2021/07/16 04:50:13;;;;;;;15.27;9.20;;;20.20;99.90;;;;;;5053065;28;20566;-66
2021/07/16 04:52:49;;;;;;;12.60;7.90;;;20.20;99.90;;;;;;5052623;28;20173;-66
2021/07/16 04:55:15;;;;;;;12.00;8.03;;;20.30;99.90;;;;;;5034569;28;20729;-66
2021/07/16 04:57:42;;;;;;;13.73;8.07;;;20.20;99.90;;;;;;5051966;28;20973;-66
2021/07/16 05:00:11;;;;;;;14.30;7.97;;;20.20;99.90;;;;;;5052298;28;21207;-66
2021/07/16 05:02:39;;;;;;;16.67;8.83;;;20.30;99.90;;;;;;5058075;28;20722;-67
2021/07/16 05:05:11;;;;;;;13.47;8.60;;;20.30;99.90;;;;;;5065798;28;20772;-66
2021/07/16 05:07:44;;;;;;;11.93;7.70;;;20.30;99.90;;;;;;5071432;28;20574;-66
2021/07/16 05:10:10;;;;;;;10.77;8.10;;;20.20;99.90;;;;;;5071895;28;20936;-66
2021/07/16 05:12:41;;;;;;;13.57;7.50;;;20.20;99.90;;;;;;5050922;28;20705;-66
2021/07/16 05:15:11;;;;;;;12.30;7.80;;;20.20;99.90;;;;;;5051979;28;20214;-66
2021/07/16 05:17:42;;;;;;;14.43;8.00;;;20.30;99.90;;;;;;5052064;28;20566;-66
2021/07/16 05:20:08;;;;;;;15.27;7.23;;;20.30;99.90;;;;;;5071450;28;20758;-66
2021/07/16 05:22:34;;;;;;;14.53;8.13;;;20.30;99.90;;;;;;5072150;28;20582;-66
2021/07/16 05:25:03;;;;;;;12.83;7.83;;;20.30;99.90;;;;;;5052336;28;21248;-65
2021/07/16 05:27:29;;;;;;;15.50;8.40;;;20.30;99.90;;;;;;5073083;28;20259;-68
2021/07/16 05:29:57;;;;;;;17.67;8.20;;;20.30;99.90;;;;;;5073667;28;20958;-67
2021/07/16 05:32:30;;;;;;;17.33;8.43;;;20.30;99.90;;;;;;5058648;28;20193;-66
2021/07/16 05:34:57;;;;;;;14.47;8.70;;;20.40;99.90;;;;;;5054045;28;20630;-66
2021/07/16 05:37:28;;;;;;;15.57;8.40;;;20.50;99.90;;;;;;5071205;28;20590;-66
2021/07/16 05:39:57;;;;;;;17.30;8.80;;;20.40;99.90;;;;;;5050526;28;20642;-67
2021/07/16 05:42:25;;;;;;;13.77;7.43;;;20.40;99.90;;;;;;5051522;28;20621;-66
2021/07/16 05:44:53;;;;;;;13.73;7.60;;;20.40;99.90;;;;;;5057247;28;20617;-66
2021/07/16 05:47:21;;;;;;;13.20;8.77;;;20.30;99.90;;;;;;5071645;28;20554;-67
2021/07/16 05:49:56;;;;;;;;;;;;;;;;;;;;;
2021/07/16 05:52:26;;;;;;;17.00;8.60;;;20.30;99.90;;;;;;5069293;28;20604;-66
2021/07/16 05:54:52;;;;;;;16.50;8.70;;;20.30;99.90;;;;;;5070509;28;20649;-66
2021/07/16 05:57:20;;;;;;;18.33;8.33;;;20.40;99.90;;;;;;5067774;28;20644;-66
2021/07/16 05:59:48;;;;;;;15.20;8.40;;;20.50;99.90;;;;;;5052737;28;20676;-66
2021/07/16 06:02:13;;;;;;;16.67;8.37;;;20.60;99.90;;;;;;5068619;28;20992;-66
2021/07/16 06:04:39;;;;;;;10.70;7.60;;;20.70;99.90;;;;;;5042450;28;21294;-67
2021/07/16 06:07:04;;;;;;;15.57;8.00;;;20.80;99.90;;;;;;5052443;28;20686;-66
2021/07/16 06:09:33;;;;;;;16.77;8.10;;;20.80;99.90;;;;;;5049937;28;20211;-67
2021/07/16 06:11:58;;;;;;;15.90;8.03;;;20.80;99.90;;;;;;5066597;28;20275;-66
2021/07/16 06:14:24;;;;;;;17.57;8.40;;;20.80;99.90;;;;;;5070443;28;21428;-66
2021/07/16 06:16:50;;;;;;;12.93;8.60;;;20.90;99.90;;;;;;5070299;28;20184;-66
2021/07/16 06:19:19;;;;;;;17.43;8.57;;;20.90;99.90;;;;;;5063617;28;20234;-66
2021/07/16 06:21:45;;;;;;;12.33;8.00;;;20.90;99.90;;;;;;5064975;28;20199;-70
2021/07/16 06:24:13;;;;;;;12.83;7.83;;;21.00;99.90;;;;;;5067325;28;20740;-66
2021/07/16 06:26:39;;;;;;;15.40;8.40;;;21.00;99.90;;;;;;5070160;28;21167;-66
2021/07/16 06:29:06;;;;;;;14.80;8.73;;;21.00;99.90;;;;;;5066448;28;20627;-66
2021/07/16 06:31:32;;;;;;;18.27;9.53;;;21.00;99.90;;;;;;5061655;28;20552;-66
2021/07/16 06:33:59;;;;;;;16.10;8.87;;;21.00;99.90;;;;;;5067658;28;20642;-66
2021/07/16 06:36:24;;;;;;;15.07;8.50;;;21.00;99.90;;;;;;5069235;28;20597;-67
2021/07/16 06:38:50;;;;;;;14.30;7.93;;;21.10;99.90;;;;;;5064336;28;21183;-66
2021/07/16 06:41:16;;;;;;;20.27;9.47;;;21.10;99.90;;;;;;5068007;28;20199;-67
2021/07/16 06:43:42;;;;;;;17.53;8.73;;;21.30;99.90;;;;;;5039317;28;20614;-67
2021/07/16 06:46:08;;;;;;;14.73;9.03;;;21.20;99.90;;;;;;5060848;28;20617;-68
2021/07/16 06:48:35;;;;;;;18.03;8.13;;;21.20;99.90;;;;;;5049708;28;20257;-67
2021/07/16 06:51:00;;;;;;;14.07;8.97;;;21.20;99.90;;;;;;5067486;28;20614;-66
2021/07/16 06:53:26;;;;;;;15.00;9.30;;;21.20;99.90;;;;;;5050256;28;20627;-66
2021/07/16 06:55:51;;;;;;;17.13;8.83;;;21.20;99.90;;;;;;5068385;28;20286;-67
2021/07/16 06:58:17;;;;;;;12.50;8.80;;;21.30;99.90;;;;;;5051612;28;20317;-66
2021/07/16 07:00:44;;;;;;;13.87;9.80;;;21.30;99.90;;;;;;5067884;28;20350;-66
2021/07/16 07:03:10;;;;;;;15.77;8.83;;;21.40;99.90;;;;;;5049969;28;20573;-66
2021/07/16 07:05:36;;;;;;;14.80;9.23;;;21.50;99.90;;;;;;5065522;28;20649;-66
2021/07/16 07:08:02;;;;;;;13.70;9.10;;;21.40;99.90;;;;;;5048908;28;20622;-66
2021/07/16 07:10:27;;;;;;;16.87;9.80;;;21.50;99.90;;;;;;5069432;28;20626;-66
2021/07/16 07:12:53;;;;;;;19.17;9.27;;;21.70;99.90;;;;;;5058491;28;20641;-67
2021/07/16 07:15:19;;;;;;;17.60;8.90;;;21.90;99.90;;;;;;5069136;28;20687;-67
2021/07/16 07:17:44;;;;;;;16.50;10.13;;;22.00;99.90;;;;;;5069130;28;20184;-67
2021/07/16 07:20:12;;;;;;;14.30;9.03;;;22.00;99.90;;;;;;5061744;28;20204;-66
2021/07/16 07:22:38;;;;;;;16.50;9.07;;;22.10;99.90;;;;;;5050587;28;20211;-67
2021/07/16 07:25:04;;;;;;;15.10;9.63;;;22.10;99.90;;;;;;5066286;28;21212;-66
2021/07/16 07:27:31;;;;;;;20.00;10.93;;;22.10;99.90;;;;;;5048143;28;20191;-67
2021/07/16 07:29:56;;;;;;;16.67;9.30;;;22.10;99.90;;;;;;5064778;28;20982;-67
2021/07/16 07:32:22;;;;;;;14.53;9.97;;;22.20;99.90;;;;;;5068934;28;20635;-66
2021/07/16 07:34:47;;;;;;;15.27;9.33;;;22.20;99.90;;;;;;5070107;28;20214;-67
2021/07/16 07:37:15;;;;;;;15.73;8.73;;;22.20;99.90;;;;;;5055777;28;20240;-67
2021/07/16 07:39:41;;;;;;;20.47;8.97;;;22.30;99.90;;;;;;5070836;28;20183;-66
2021/07/16 07:42:06;;;;;;;12.43;8.57;;;22.40;99.90;;;;;;5072249;28;20698;-67
2021/07/16 07:44:34;;;;;;;14.90;8.80;;;22.50;99.90;;;;;;5068490;28;20664;-66
2021/07/16 07:47:01;;;;;;;14.93;8.73;;;22.40;99.90;;;;;;5068571;28;20196;-67
2021/07/16 07:49:28;;;;;;;14.20;9.03;;;22.50;99.90;;;;;;5071387;28;20878;-66
2021/07/16 07:51:53;;;;;;;11.83;8.30;;;22.50;99.90;;;;;;5071436;28;21280;-66
2021/07/16 07:54:19;;;;;;;15.80;9.33;;;22.40;99.90;;;;;;5070362;28;20682;-67
2021/07/16 07:56:44;;;;;;;12.67;8.97;;;22.50;99.90;;;;;;5067288;28;20271;-67
2021/07/16 07:59:10;;;;;;;15.70;9.60;;;22.60;99.90;;;;;;5070756;28;20320;-66
2021/07/16 08:01:36;;;;;;;15.77;8.70;;;22.60;99.90;;;;;;5062237;28;20210;-67
2021/07/16 08:04:02;;;;;;;15.17;8.80;;;22.60;99.90;;;;;;5073267;28;20202;-67
2021/07/16 08:06:28;;;;;;;13.67;8.63;;;22.50;99.90;;;;;;5075897;28;20286;-67
2021/07/16 08:08:53;;;;;;;14.30;8.33;;;22.60;99.90;;;;;;5071415;28;20616;-67
2021/07/16 08:11:19;;;;;;;11.83;8.57;;;22.70;99.90;;;;;;5071619;28;20179;-67
2021/07/16 08:13:44;;;;;;;15.57;8.70;;;22.90;99.90;;;;;;5072988;28;20191;-66
2021/07/16 08:16:10;;;;;;;11.47;8.17;;;22.80;99.90;;;;;;5075661;28;20195;-66
2021/07/16 08:18:35;;;;;;;13.37;8.33;;;22.90;99.90;;;;;;5069483;28;20187;-67
2021/07/16 08:21:01;;;;;;;13.60;8.20;;;22.90;99.90;;;;;;5076765;28;20244;-66
2021/07/16 08:23:27;;;;;;;14.07;7.73;;;22.90;99.90;;;;;;5072819;28;20215;-66
2021/07/16 08:25:53;;;;;;;11.53;7.30;;;23.10;99.90;;;;;;5072440;28;20704;-66
2021/07/16 08:28:18;;;;;;;9.80;7.60;;;23.30;99.90;;;;;;5073608;28;20183;-67
2021/07/16 08:30:44;;;;;;;12.67;7.93;;;23.40;99.90;;;;;;5073576;28;20200;-66
2021/07/16 08:33:12;;;;;;;14.40;8.13;;;23.50;99.90;;;;;;5073893;28;20183;-66
2021/07/16 08:35:38;;;;;;;14.93;7.50;;;23.40;99.90;;;;;;5073460;28;20231;-66
2021/07/16 08:38:05;;;;;;;12.00;7.30;;;23.40;99.90;;;;;;5073743;28;21140;-66
2021/07/16 08:40:32;;;;;;;10.83;6.93;;;23.50;99.90;;;;;;5063688;28;20601;-66
2021/07/16 08:42:58;;;;;;;11.80;7.30;;;23.70;99.90;;;;;;5067052;28;20590;-66
2021/07/16 08:45:26;;;;;;;12.80;7.53;;;23.80;99.90;;;;;;5066915;28;20641;-66
2021/07/16 08:47:54;;;;;;;10.10;6.60;;;23.70;99.90;;;;;;5068143;28;20671;-66
2021/07/16 08:50:20;;;;;;;10.40;6.87;;;23.70;99.90;;;;;;5065411;28;20708;-66
2021/07/16 08:52:47;;;;;;;12.87;6.27;;;23.80;99.90;;;;;;5070197;28;20609;-66
2021/07/16 08:55:14;;;;;;;13.53;6.40;;;23.90;99.90;;;;;;5052092;28;21243;-67
2021/07/16 08:57:39;;;;;;;8.63;6.50;;;23.80;99.90;;;;;;5046469;28;20691;-66
2021/07/16 09:00:25;;;;;;;13.23;6.70;;;23.90;99.90;;;;;;5068654;28;20614;-66
2021/07/16 09:02:57;;;;;;;8.67;6.50;;;24.00;99.90;;;;;;5065339;28;20563;-66
2021/07/16 09:05:35;;;;;;;13.00;6.90;;;24.00;99.90;;;;;;5066165;28;20659;-66
2021/07/16 09:08:01;;;;;;;13.00;6.50;;;24.00;99.90;;;;;;5064446;28;20739;-67
2021/07/16 09:10:27;;;;;;;7.83;6.50;;;24.00;99.90;;;;;;5051312;28;20660;-66
2021/07/16 09:13:03;;;;;;;10.50;6.57;;;24.10;99.90;;;;;;5062708;28;20187;-66
2021/07/16 09:15:29;;;;;;;13.40;7.83;;;24.20;99.90;;;;;;5071052;28;20672;-67
2021/07/16 09:18:12;;;;;;;12.93;7.07;;;24.20;99.90;;;;;;5052218;28;20617;-66
2021/07/16 09:20:38;;;;;;;12.13;6.23;;;24.40;99.90;;;;;;5066297;28;20682;-66
2021/07/16 09:23:09;;;;;;;11.10;6.70;;;24.50;99.90;;;;;;5066834;28;20696;-66
2021/07/16 09:25:37;;;;;;;8.73;6.00;;;24.60;99.90;;;;;;5069132;28;20639;-66
2021/07/16 09:28:02;;;;;;;10.23;6.37;;;24.60;99.90;;;;;;5059006;28;20606;-66
2021/07/16 09:30:29;;;;;;;11.50;6.40;;;24.80;99.90;;;;;;5066024;28;20599;-66
2021/07/16 09:33:00;;;;;;;11.50;6.83;;;24.80;99.90;;;;;;5071686;28;20176;-66
2021/07/16 09:35:32;;;;;;;9.97;6.70;;;24.80;99.90;;;;;;5049292;28;20801;-66
2021/07/16 09:38:02;;;;;;;11.63;7.00;;;24.90;99.90;;;;;;5068751;28;20577;-66
2021/07/16 09:40:40;;;;;;;13.53;7.20;;;24.90;99.90;;;;;;5070927;28;20638;-66
2021/07/16 09:43:13;;;;;;;13.53;6.97;;;25.00;99.90;;;;;;5068602;28;20612;-66
2021/07/16 09:45:51;;;;;;;9.47;5.57;;;25.10;99.90;;;;;;5064779;28;20645;-66
2021/07/16 09:48:29;;;;;;;9.23;5.57;;;25.20;99.90;;;;;;5052530;28;20606;-66
2021/07/16 09:51:12;;;;;;;11.17;6.40;;;25.40;99.90;;;;;;5070948;28;20605;-66
2021/07/16 09:53:50;;;;;;;10.00;6.40;;;25.50;99.90;;;;;;5064813;28;20647;-67
2021/07/16 09:56:18;;;;;;;10.37;6.10;;;25.60;99.90;;;;;;5051682;28;20601;-66
2021/07/16 09:58:45;;;;;;;9.20;6.43;;;25.70;99.90;;;;;;5072323;28;21166;-66
2021/07/16 10:01:11;;;;;;;12.43;6.40;;;25.80;99.90;;;;;;5068823;28;20675;-66
2021/07/16 10:03:38;;;;;;;7.57;6.00;;;25.90;99.90;;;;;;5069889;28;20602;-66
2021/07/16 10:06:04;;;;;;;7.07;5.90;;;25.90;99.90;;;;;;5081530;22;21112;-65
2021/07/16 10:08:35;;;;;;;11.13;6.60;;;25.90;99.90;;;;;;5070411;28;21008;-65
2021/07/16 10:11:05;;;;;;;8.13;6.03;;;25.90;99.90;;;;;;5072354;28;20629;-65
2021/07/16 10:13:33;;;;;;;8.63;6.57;;;25.80;99.90;;;;;;5066496;28;21224;-65
2021/07/16 10:15:59;;;;;;;10.37;6.83;;;26.00;99.90;;;;;;5048993;28;21234;-66
2021/07/16 10:18:25;;;;;;;9.83;6.40;;;26.00;99.90;;;;;;5067696;28;20621;-65
2021/07/16 10:20:52;;;;;;;11.93;7.57;;;26.10;99.90;;;;;;5067927;28;20652;-64
2021/07/16 10:23:18;;;;;;;12.67;7.33;;;26.10;99.90;;;;;;5067364;28;20599;-65
2021/07/16 10:25:46;;;;;;;9.87;7.10;;;26.00;99.90;;;;;;5068566;28;20633;-65
2021/07/16 10:28:42;;;;;;;10.90;7.27;;;26.20;99.90;;;;;;5068494;28;20602;-65
2021/07/16 10:31:26;;;;;;;;;;;26.20;99.90;;;;;;5064027;28;20631;-65
2021/07/16 10:33:54;;;;;;;;;;;26.30;99.90;;;;;;5070035;28;19966;-65
2021/07/16 10:36:38;;;;;;;;;;;26.30;99.90;;;;;;5053710;28;19908;-65
2021/07/16 10:39:27;;;;;;;;;;;26.20;99.90;;;;;;5071676;28;20249;-65
2021/07/16 10:41:52;;;;;;;;;;;26.20;99.90;;;;;;5068348;28;20319;-66
2021/07/16 10:44:38;;;;;;;;;;;26.20;99.90;;;;;;5069142;28;19904;-65
2021/07/16 10:47:25;;;;;;;;;;;26.20;99.90;;;;;;5044496;28;19908;-66
2021/07/16 10:49:54;;;;;;;;;;;26.30;99.90;;;;;;5062176;28;20019;-65
2021/07/16 10:52:39;;;;;;;;;;;26.30;99.90;;;;;;5069528;28;19904;-65
2021/07/16 10:55:05;;;;;;;;;;;26.40;99.90;;;;;;5069531;28;20257;-66
2021/07/16 10:57:38;;;;;;;;;;;26.60;99.90;;;;;;5051607;28;19949;-65
2021/07/16 11:00:04;;;;;;;;;;;26.50;99.90;;;;;;5066915;28;19904;-65
2021/07/16 11:02:46;;;;;;;;;;;26.60;99.90;;;;;;5066210;28;19988;-66
2021/07/16 11:05:30;;;;;;;;;;;26.60;99.90;;;;;;5045637;28;19912;-65
2021/07/16 11:07:56;;;;;;;;;;;26.60;99.90;;;;;;5039885;28;19916;-65
2021/07/16 11:10:40;;;;;;;;;;;26.60;99.90;;;;;;5051184;28;20344;-66
2021/07/16 11:13:24;;;;;;;;;;;26.60;99.90;;;;;;5069436;28;19973;-66
2021/07/16 11:15:49;;;;;;;;;;;26.70;99.90;;;;;;5066220;28;20015;-65
2021/07/16 11:18:26;;;;;;;;;;;26.80;99.90;;;;;;5057226;28;20359;-66
2021/07/16 11:20:57;;;;;;;;;;;26.90;99.90;;;;;;5058910;28;19963;-65
2021/07/16 11:23:40;;;;;;;;;;;26.90;99.90;;;;;;5063042;28;20403;-65
2021/07/16 11:26:16;;;;;;;;;;;26.80;99.90;;;;;;5065641;28;19908;-66
2021/07/16 11:28:41;;;;;;;;;;;26.90;99.90;;;;;;5066325;28;19909;-65
2021/07/16 11:31:10;;;;;;;;;;;27.10;99.90;;;;;;5049585;28;19923;-65
2021/07/16 11:33:35;;;;;;;;;;;27.20;99.90;;;;;;5049727;28;19919;-66
2021/07/16 11:36:01;;;;;;;;;;;27.20;99.90;;;;;;5062720;28;19908;-65
2021/07/16 11:38:27;;;;;;;;;;;27.30;99.90;;;;;;5068336;28;19920;-66
2021/07/16 11:40:52;;;;;;;;;;;27.40;99.90;;;;;;5066657;28;20260;-65
2021/07/16 11:43:18;;;;;;;;;;;27.30;99.90;;;;;;5061781;28;19916;-66
2021/07/16 11:45:52;;;;;;;;;;;27.40;99.90;;;;;;5049527;28;19920;-66
2021/07/16 11:48:18;;;;;;;;;;;27.40;99.90;;;;;;5068837;28;19927;-65
2021/07/16 11:50:46;;;;;;;;;;;27.50;99.90;;;;;;5066372;28;19923;-65
2021/07/16 11:53:12;;;;;;;;;;;27.60;99.90;;;;;;5067435;28;19908;-65
2021/07/16 11:55:38;;;;;;;;;;;27.80;99.90;;;;;;5066945;28;19905;-65
2021/07/16 11:58:04;;;;;;;;;;;27.80;99.90;;;;;;5048769;28;20222;-65
2021/07/16 12:00:34;;;;;;;;;;;27.80;99.90;;;;;;5062944;28;20010;-65
2021/07/16 12:03:06;;;;;;;;;;;27.90;99.90;;;;;;5062825;28;19995;-65
2021/07/16 12:05:32;;;;;;;;;;;28.00;99.90;;;;;;5059857;28;20374;-65
2021/07/16 12:08:00;;;;;;;;;;;28.10;99.90;;;;;;5049103;28;19940;-65
2021/07/16 12:10:26;;;;;;;;;;;28.20;99.90;;;;;;5066104;28;20294;-65
2021/07/16 12:12:58;;;;;;;;;;;28.10;99.90;;;;;;5063983;28;19908;-65
2021/07/16 12:15:24;;;;;;;;;;;28.20;99.90;;;;;;5046789;28;19912;-65
2021/07/16 12:17:52;;;;;;;;;;;28.40;99.90;;;;;;5064235;28;20303;-63
2021/07/16 12:20:24;;;;;;;;;;;28.60;99.90;;;;;;5063640;28;19912;-63
2021/07/16 12:22:50;;;;;;;;;;;28.60;99.90;;;;;;5068219;28;19999;-64
2021/07/16 12:25:15;;;;;;;;;;;28.80;99.90;;;;;;5051482;28;20288;-64
2021/07/16 12:27:41;;;;;;;;;;;28.80;99.90;;;;;;5055019;28;20408;-64
2021/07/16 12:30:08;;;;;;;;;;;28.70;99.90;;;;;;5069281;28;19959;-64
2021/07/16 12:32:34;;;;;;;;;;;28.80;99.90;;;;;;5065252;28;19939;-64
2021/07/16 12:35:00;;;;;;;;;;;28.90;99.90;;;;;;5070254;28;20398;-64
2021/07/16 12:37:35;;;;;;;;;;;29.00;99.90;;;;;;5063257;28;20003;-64
2021/07/16 12:40:02;;;;;;;;;;;29.10;99.90;;;;;;5047988;28;19915;-64
2021/07/16 12:42:28;;;;;;;;;;;29.20;99.90;;;;;;5071349;28;19908;-64
2021/07/16 12:45:05;;;;;;;;;;;29.40;99.90;;;;;;5070210;28;19909;-64
2021/07/16 12:47:31;;;;;;;;;;;29.50;99.90;;;;;;5059536;28;19965;-64
2021/07/16 12:50:04;;;;;;;;;;;29.50;99.90;;;;;;5071853;28;19973;-67
2021/07/16 12:52:29;;;;;;;;;;;29.50;99.90;;;;;;5071930;28;19983;-66
2021/07/16 12:55:11;;;;;;;;;;;29.70;99.90;;;;;;5070041;28;19992;-64
2021/07/16 12:57:37;;;;;;;;;;;29.80;99.90;;;;;;5068964;28;20447;-63
2021/07/16 13:00:11;;;;;;;;;;;29.90;99.90;;;;;;5072112;28;19995;-63
2021/07/16 13:02:39;;;;;;;;;;;30.00;99.90;;;;;;5069416;28;19954;-64
2021/07/16 13:05:05;;;;;;;;;;;30.00;99.90;;;;;;5064087;28;20455;-64
2021/07/16 13:07:30;;;;;;;;;;;30.20;99.90;;;;;;5051338;28;19999;-64